Time;durP1;ratioP1;P1;durP2;ratioP2;P2;SDS_P1;SDS_P2;PMS_P1;PMS_P2;Temp;Humidity;BMP_temperature;BMP_pressure;BME280_temperature;BME280_humidity;BME280_pressure;Samples;Min_cycle;Max_cycle;Signal;HPM_P1;HPM_P2
2023/05/20 00:01:21;;;;;;;9.25;3.78;;;11.50;99.90;;;;;;5022135;28;20048;-77
2023/05/20 00:03:46;;;;;;;9.68;4.70;;;11.50;99.90;;;;;;5019557;28;20476;-76
2023/05/20 00:06:12;;;;;;;13.68;4.55;;;11.50;99.90;;;;;;5021232;28;20048;-75
2023/05/20 00:08:38;;;;;;;12.05;4.47;;;11.50;99.90;;;;;;5024060;28;20121;-78
2023/05/20 00:11:03;;;;;;;10.32;4.55;;;11.40;99.90;;;;;;5037829;28;20049;-76
2023/05/20 00:13:29;;;;;;;10.95;4.25;;;11.40;99.90;;;;;;5023296;28;20052;-75
2023/05/20 00:15:55;;;;;;;12.77;4.50;;;11.40;99.90;;;;;;5024770;28;20045;-75
2023/05/20 00:18:21;;;;;;;13.30;4.80;;;12.40;99.90;;;;;;5040636;28;20057;-78
2023/05/20 00:20:49;;;;;;;11.85;3.90;;;11.40;99.90;;;;;;5036335;28;20048;-75
2023/05/20 00:23:14;;;;;;;12.85;4.55;;;11.40;99.90;;;;;;5037394;28;20417;-75
2023/05/20 00:25:40;;;;;;;8.45;4.00;;;11.40;99.90;;;;;;5027071;28;20053;-75
2023/05/20 00:28:09;;;;;;;11.10;4.28;;;11.40;99.90;;;;;;5036234;28;20110;-76
2023/05/20 00:30:34;;;;;;;11.23;4.32;;;11.40;99.90;;;;;;5035200;28;20044;-76
2023/05/20 00:33:00;;;;;;;10.98;4.70;;;11.40;99.90;;;;;;5024596;28;20803;-75
2023/05/20 00:35:26;;;;;;;11.18;4.10;;;11.40;99.90;;;;;;5033793;28;20049;-76
2023/05/20 00:37:57;;;;;;;11.00;4.25;;;11.40;99.90;;;;;;5023949;28;20792;-75
2023/05/20 00:40:24;;;;;;;15.95;4.20;;;11.40;99.90;;;;;;5022447;28;20041;-76
2023/05/20 00:42:49;;;;;;;10.30;4.18;;;11.30;99.90;;;;;;5029010;28;20413;-75
2023/05/20 00:45:16;;;;;;;12.48;4.20;;;11.30;99.90;;;;;;5042812;28;20170;-75
2023/05/20 00:47:42;;;;;;;11.30;4.57;;;11.30;99.90;;;;;;5025407;28;20514;-77
2023/05/20 00:50:09;;;;;;;10.18;4.15;;;11.30;99.90;;;;;;5035160;28;20480;-78
2023/05/20 00:52:36;;;;;;;10.80;3.90;;;11.30;99.90;;;;;;5022647;28;20055;-77
2023/05/20 00:55:02;;;;;;;10.82;4.00;;;11.30;99.90;;;;;;5037832;28;20083;-76
2023/05/20 00:57:28;;;;;;;9.13;4.00;;;11.30;99.90;;;;;;5023978;28;20919;-74
2023/05/20 00:59:54;;;;;;;9.23;4.00;;;11.30;99.90;;;;;;5031787;28;20097;-76
2023/05/20 01:02:21;;;;;;;8.57;3.45;;;11.30;99.90;;;;;;5033996;28;20131;-75
2023/05/20 01:04:48;;;;;;;8.52;3.92;;;11.30;99.90;;;;;;5040821;28;20102;-76
2023/05/20 01:07:18;;;;;;;11.38;4.97;;;11.30;99.90;;;;;;5037337;28;20518;-75
2023/05/20 01:09:44;;;;;;;12.70;4.95;;;11.30;99.90;;;;;;5020329;28;20049;-77
2023/05/20 01:12:42;;;;;;;13.82;4.95;;;11.30;99.90;;;;;;5041670;28;20084;-75
2023/05/20 01:15:10;;;;;;;9.07;4.75;;;11.30;99.90;;;;;;5029420;28;20132;-77
2023/05/20 01:17:43;;;;;;;12.88;4.70;;;11.30;99.90;;;;;;5024327;28;20491;-76
2023/05/20 01:20:13;;;;;;;11.02;4.25;;;11.30;99.90;;;;;;5029174;28;20062;-77
2023/05/20 01:22:55;;;;;;;11.98;4.70;;;11.30;99.90;;;;;;5031435;28;20121;-77
2023/05/20 01:25:21;;;;;;;9.77;4.13;;;11.30;99.90;;;;;;5021149;28;20052;-74
2023/05/20 01:27:48;;;;;;;11.25;4.50;;;11.30;99.90;;;;;;5034898;28;20596;-76
2023/05/20 01:30:15;;;;;;;17.48;4.82;;;11.30;99.90;;;;;;5029148;28;20054;-75
2023/05/20 01:32:53;;;;;;;10.07;4.70;;;11.30;99.90;;;;;;5023414;28;20441;-76
2023/05/20 01:35:27;;;;;;;11.68;4.72;;;11.20;99.90;;;;;;5032846;28;20056;-75
2023/05/20 01:37:54;;;;;;;13.50;5.35;;;11.20;99.90;;;;;;5019868;28;20128;-77
2023/05/20 01:40:22;;;;;;;10.32;4.88;;;11.20;99.90;;;;;;5036170;28;20053;-76
2023/05/20 01:42:51;;;;;;;12.75;5.05;;;11.20;99.90;;;;;;5038690;28;20558;-76
2023/05/20 01:45:18;;;;;;;16.55;4.88;;;11.20;99.90;;;;;;5044148;28;20320;-76
2023/05/20 01:47:47;;;;;;;12.73;5.25;;;11.20;99.90;;;;;;5018134;28;20050;-75
2023/05/20 01:50:20;;;;;;;10.90;5.03;;;11.20;99.90;;;;;;5018035;28;20124;-75
2023/05/20 01:52:46;;;;;;;12.27;5.10;;;11.10;99.90;;;;;;5023022;28;20392;-75
2023/05/20 01:55:11;;;;;;;10.50;4.82;;;11.10;99.90;;;;;;5025602;28;20091;-76
2023/05/20 01:57:37;;;;;;;12.75;5.00;;;11.10;99.90;;;;;;5021771;28;20131;-75
2023/05/20 02:00:05;;;;;;;12.07;5.10;;;11.10;99.90;;;;;;5029437;28;20132;-75
2023/05/20 02:02:30;;;;;;;13.82;5.80;;;11.10;99.90;;;;;;5040520;28;20123;-76
2023/05/20 02:04:59;;;;;;;13.98;5.75;;;11.10;99.90;;;;;;5040109;28;20060;-77
2023/05/20 02:07:25;;;;;;;13.50;5.43;;;11.10;99.90;;;;;;5062938;28;20498;-76
2023/05/20 02:09:51;;;;;;;15.52;5.30;;;10.30;99.90;;;;;;5023403;28;20049;-77
2023/05/20 02:12:17;;;;;;;15.00;5.43;;;11.10;99.90;;;;;;5018898;28;20114;-78
2023/05/20 02:14:45;;;;;;;15.68;5.55;;;11.10;99.90;;;;;;5059318;28;20123;-77
2023/05/20 02:17:15;;;;;;;12.63;5.30;;;11.10;99.90;;;;;;5047373;28;20436;-77
2023/05/20 02:19:41;;;;;;;16.30;5.70;;;11.10;99.90;;;;;;5027771;28;20363;-75
2023/05/20 02:22:07;;;;;;;11.68;5.50;;;11.10;99.90;;;;;;5030149;28;20045;-76
2023/05/20 02:24:32;;;;;;;13.77;5.40;;;11.10;99.90;;;;;;5038967;28;20413;-74
2023/05/20 02:26:58;;;;;;;14.00;5.47;;;11.10;99.90;;;;;;5044450;28;20053;-75
2023/05/20 02:29:24;;;;;;;12.82;5.60;;;11.10;99.90;;;;;;5037153;28;20049;-76
2023/05/20 02:31:50;;;;;;;11.75;5.13;;;11.10;99.90;;;;;;5037492;28;20045;-76
2023/05/20 02:34:22;;;;;;;10.95;5.03;;;11.10;99.90;;;;;;5041843;28;20052;-76
2023/05/20 02:36:48;;;;;;;17.83;5.75;;;11.10;99.90;;;;;;5027984;28;20049;-75
2023/05/20 02:39:14;;;;;;;12.90;5.18;;;11.10;99.90;;;;;;5029779;28;20076;-76
2023/05/20 02:41:40;;;;;;;8.23;4.85;;;11.10;99.90;;;;;;5024586;28;20045;-77
2023/05/20 02:44:05;;;;;;;13.57;5.15;;;11.10;99.90;;;;;;5028041;28;20052;-76
2023/05/20 02:46:31;;;;;;;13.85;4.90;;;11.10;99.90;;;;;;5022102;28;20045;-76
2023/05/20 02:48:57;;;;;;;17.95;5.70;;;11.10;99.90;;;;;;5032802;28;20052;-76
2023/05/20 02:51:24;;;;;;;13.07;5.25;;;11.10;99.90;;;;;;5033231;28;20410;-76
2023/05/20 02:53:50;;;;;;;12.13;5.40;;;11.10;99.90;;;;;;5033765;28;20080;-76
2023/05/20 02:56:20;;;;;;;16.95;6.22;;;11.10;99.90;;;;;;5045470;28;20495;-76
2023/05/20 02:58:47;;;;;;;11.88;5.80;;;11.10;99.90;;;;;;5024469;28;20450;-76
2023/05/20 03:01:16;;;;;;;10.85;5.53;;;11.10;99.90;;;;;;5056451;28;20045;-76
2023/05/20 03:03:42;;;;;;;18.20;6.13;;;11.10;99.90;;;;;;5029283;28;20049;-75
2023/05/20 03:06:07;;;;;;;12.73;5.28;;;11.20;99.90;;;;;;5027645;28;20118;-74
2023/05/20 03:08:35;;;;;;;13.27;6.47;;;11.20;99.90;;;;;;5027148;28;20065;-76
2023/05/20 03:11:01;;;;;;;15.18;5.88;;;11.20;99.90;;;;;;5041927;28;20052;-76
2023/05/20 03:13:28;;;;;;;11.25;6.28;;;11.10;99.90;;;;;;5014790;28;20689;-77
2023/05/20 03:15:54;;;;;;;18.15;5.85;;;11.20;99.90;;;;;;5034743;28;20132;-76
2023/05/20 03:18:19;;;;;;;14.30;5.80;;;11.10;99.90;;;;;;5033312;28;20471;-77
2023/05/20 03:20:46;;;;;;;12.93;6.30;;;11.10;99.90;;;;;;5035425;28;20266;-76
2023/05/20 03:23:11;;;;;;;14.00;5.75;;;11.10;99.90;;;;;;5040812;28;20522;-76
2023/05/20 03:25:39;;;;;;;12.75;6.07;;;11.10;99.90;;;;;;5041839;28;20080;-74
2023/05/20 03:28:06;;;;;;;15.13;5.88;;;11.10;99.90;;;;;;5036694;28;20111;-75
2023/05/20 03:30:35;;;;;;;13.77;6.20;;;11.10;99.90;;;;;;5038060;28;20049;-74
2023/05/20 03:33:01;;;;;;;15.18;6.38;;;11.00;99.90;;;;;;5024761;28;20499;-76
2023/05/20 03:35:28;;;;;;;12.60;5.95;;;11.00;99.90;;;;;;5038356;28;20033;-75
2023/05/20 03:37:54;;;;;;;11.32;6.03;;;11.00;99.90;;;;;;5034020;28;20081;-75
2023/05/20 03:40:20;;;;;;;15.48;6.55;;;11.00;99.90;;;;;;5041281;28;20736;-75
2023/05/20 03:42:46;;;;;;;11.95;6.40;;;10.50;99.90;;;;;;5024364;28;20088;-77
2023/05/20 03:45:12;;;;;;;12.65;6.65;;;11.00;99.90;;;;;;5027693;28;20053;-75
2023/05/20 03:47:38;;;;;;;13.18;6.63;;;11.00;99.90;;;;;;5040549;28;20047;-76
2023/05/20 03:50:05;;;;;;;14.98;6.07;;;11.10;99.90;;;;;;5026870;28;20480;-74
2023/05/20 03:52:31;;;;;;;15.15;6.68;;;11.00;99.90;;;;;;5021925;28;20099;-77
2023/05/20 03:54:56;;;;;;;12.00;5.95;;;11.00;99.90;;;;;;5037574;28;20049;-75
2023/05/20 03:57:22;;;;;;;12.00;5.80;;;10.90;99.90;;;;;;5025468;28;20061;-76
2023/05/20 03:59:48;;;;;;;10.18;5.95;;;10.90;99.90;;;;;;5028295;28;20053;-75
2023/05/20 04:02:14;;;;;;;13.52;6.25;;;10.90;99.90;;;;;;5037237;28;20045;-76
2023/05/20 04:04:41;;;;;;;8.95;5.13;;;10.90;99.90;;;;;;5032418;28;20052;-74
2023/05/20 04:07:10;;;;;;;10.85;5.95;;;10.90;99.90;;;;;;5024002;28;20546;-76
2023/05/20 04:09:42;;;;;;;12.25;5.60;;;10.90;99.90;;;;;;5031898;28;20133;-73
2023/05/20 04:12:07;;;;;;;11.77;5.88;;;10.90;99.90;;;;;;5030151;28;20041;-75
2023/05/20 04:14:33;;;;;;;13.70;5.80;;;10.90;99.90;;;;;;5023007;28;20045;-75
2023/05/20 04:17:08;;;;;;;12.68;5.90;;;10.90;99.90;;;;;;5030874;28;20053;-76
2023/05/20 04:19:36;;;;;;;11.25;5.65;;;10.90;99.90;;;;;;5049661;28;20049;-76
2023/05/20 04:22:05;;;;;;;11.45;6.28;;;10.80;99.90;;;;;;5058300;28;20099;-75
2023/05/20 04:24:31;;;;;;;14.50;5.60;;;10.90;99.90;;;;;;5029153;28;20049;-76
2023/05/20 04:26:57;;;;;;;10.40;5.00;;;10.80;99.90;;;;;;5039763;28;20948;-76
2023/05/20 04:29:22;;;;;;;12.32;5.57;;;10.90;99.90;;;;;;5024775;28;20037;-76
2023/05/20 04:31:48;;;;;;;15.35;5.93;;;10.90;99.90;;;;;;5025804;28;20132;-75
2023/05/20 04:34:18;;;;;;;12.05;5.13;;;10.80;99.90;;;;;;5032060;28;20373;-74
2023/05/20 04:36:44;;;;;;;14.95;5.60;;;10.90;99.90;;;;;;5013558;28;20049;-75
2023/05/20 04:39:10;;;;;;;9.80;5.20;;;10.80;99.90;;;;;;5016879;28;20100;-76
2023/05/20 04:41:36;;;;;;;11.38;6.22;;;11.20;99.90;;;;;;5031166;28;20079;-76
2023/05/20 04:44:02;;;;;;;9.68;5.15;;;10.90;99.90;;;;;;5032447;28;20494;-77
2023/05/20 04:46:28;;;;;;;12.70;5.15;;;10.90;99.90;;;;;;5018647;28;20107;-76
2023/05/20 04:48:54;;;;;;;9.00;5.15;;;10.90;99.90;;;;;;5034613;28;20052;-77
2023/05/20 04:51:20;;;;;;;10.48;5.25;;;10.90;99.90;;;;;;5020270;28;20089;-76
2023/05/20 04:53:46;;;;;;;9.43;5.28;;;10.90;99.90;;;;;;5028744;28;20111;-76
2023/05/20 04:56:12;;;;;;;11.68;4.97;;;11.00;99.90;;;;;;5022998;28;20057;-74
2023/05/20 04:58:41;;;;;;;7.78;5.20;;;11.00;99.90;;;;;;5027571;28;20103;-77
2023/05/20 05:01:11;;;;;;;9.32;4.85;;;11.00;99.90;;;;;;5037719;28;20052;-76
2023/05/20 05:03:37;;;;;;;12.52;4.80;;;11.00;99.90;;;;;;5025203;28;20109;-74
2023/05/20 05:06:03;;;;;;;10.95;4.78;;;11.10;99.90;;;;;;5019750;28;20151;-75
2023/05/20 05:08:28;;;;;;;9.40;5.32;;;11.10;99.90;;;;;;5020778;28;20052;-74
2023/05/20 05:10:54;;;;;;;10.90;4.97;;;11.10;99.90;;;;;;5030988;28;20049;-76
2023/05/20 05:13:20;;;;;;;12.73;4.45;;;11.10;99.90;;;;;;5016622;28;20088;-75
2023/05/20 05:15:46;;;;;;;8.27;4.40;;;11.20;99.90;;;;;;5028373;28;20095;-75
2023/05/20 05:18:11;;;;;;;12.20;4.50;;;11.20;99.90;;;;;;5032410;28;20080;-76
2023/05/20 05:20:38;;;;;;;7.75;4.47;;;11.30;99.90;;;;;;5036096;28;20057;-75
2023/05/20 05:23:04;;;;;;;10.73;4.60;;;11.30;99.90;;;;;;5024298;28;20400;-75
2023/05/20 05:25:30;;;;;;;9.55;4.25;;;11.30;99.90;;;;;;5033335;28;20053;-75
2023/05/20 05:27:56;;;;;;;11.00;4.70;;;11.40;99.90;;;;;;5031750;28;20107;-76
2023/05/20 05:30:21;;;;;;;9.43;4.65;;;11.50;99.90;;;;;;5043029;28;20049;-75
2023/05/20 05:32:48;;;;;;;9.93;4.35;;;11.50;99.90;;;;;;5025205;28;20488;-75
2023/05/20 05:35:14;;;;;;;9.20;4.35;;;11.50;99.90;;;;;;5035242;28;20049;-75
2023/05/20 05:37:40;;;;;;;8.77;4.60;;;11.60;99.90;;;;;;5030781;28;20057;-73
2023/05/20 05:40:12;;;;;;;9.45;4.18;;;11.70;99.90;;;;;;5047202;28;20044;-74
2023/05/20 05:42:38;;;;;;;9.35;4.07;;;11.80;99.90;;;;;;5017958;28;20061;-77
2023/05/20 05:45:04;;;;;;;5.60;3.40;;;11.90;99.90;;;;;;5042375;28;20161;-74
2023/05/20 05:47:31;;;;;;;5.40;3.58;;;11.90;99.90;;;;;;5024488;28;20515;-75
2023/05/20 05:49:58;;;;;;;7.82;3.42;;;12.00;99.90;;;;;;5040570;28;20080;-75
2023/05/20 05:52:26;;;;;;;7.65;3.15;;;12.10;99.90;;;;;;5025259;28;20049;-74
2023/05/20 05:54:53;;;;;;;6.95;3.38;;;12.10;99.90;;;;;;5029540;28;20056;-76
2023/05/20 05:57:18;;;;;;;5.10;2.70;;;12.20;99.90;;;;;;5016654;28;20321;-76
2023/05/20 05:59:46;;;;;;;6.32;3.17;;;12.30;99.90;;;;;;5028466;28;20093;-76
2023/05/20 06:02:17;;;;;;;7.75;2.90;;;12.40;99.90;;;;;;5022527;28;20052;-76
2023/05/20 06:04:46;;;;;;;6.63;2.95;;;12.50;99.90;;;;;;5054832;28;20057;-76
2023/05/20 06:07:15;;;;;;;9.18;3.17;;;12.50;99.90;;;;;;5034756;28;20045;-76
2023/05/20 06:09:48;;;;;;;6.40;2.63;;;12.60;99.90;;;;;;5018894;28;20053;-78
2023/05/20 06:12:15;;;;;;;5.57;2.63;;;12.70;99.90;;;;;;5017938;28;20057;-76
2023/05/20 06:14:41;;;;;;;3.70;2.38;;;12.70;99.90;;;;;;5023507;28;20907;-75
2023/05/20 06:17:08;;;;;;;6.50;2.58;;;12.70;99.90;;;;;;5020618;28;20049;-76
2023/05/20 06:19:36;;;;;;;3.42;2.10;;;12.80;99.90;;;;;;5041252;28;20107;-75
2023/05/20 06:22:02;;;;;;;5.28;2.60;;;12.90;99.90;;;;;;5038959;28;20056;-77
2023/05/20 06:24:28;;;;;;;5.18;2.45;;;13.10;99.90;;;;;;5008298;28;20060;-76
2023/05/20 06:27:09;;;;;;;5.53;2.15;;;13.30;99.90;;;;;;5023637;28;20492;-75
2023/05/20 06:29:35;;;;;;;4.00;2.22;;;13.50;99.90;;;;;;5033589;28;20056;-74
2023/05/20 06:32:00;;;;;;;4.40;2.20;;;13.60;99.90;;;;;;5035172;28;20037;-76
2023/05/20 06:34:32;;;;;;;3.83;1.85;;;13.70;99.90;;;;;;5023559;28;20075;-76
2023/05/20 06:36:59;;;;;;;3.92;2.00;;;13.90;99.90;;;;;;5019547;28;20045;-74
2023/05/20 06:39:25;;;;;;;5.07;1.83;;;14.00;99.90;;;;;;5005258;28;20061;-75
2023/05/20 06:41:53;;;;;;;4.28;1.85;;;14.10;99.90;;;;;;5001987;28;20041;-73
2023/05/20 06:44:19;;;;;;;7.03;1.80;;;14.20;99.90;;;;;;5042322;28;20100;-74
2023/05/20 06:46:45;;;;;;;2.85;1.90;;;14.30;99.90;;;;;;5036602;28;20083;-76
2023/05/20 06:49:13;;;;;;;4.00;1.90;;;13.90;99.90;;;;;;5037069;28;20988;-75
2023/05/20 06:51:39;;;;;;;4.60;1.95;;;14.10;99.90;;;;;;5021836;28;20054;-76
2023/05/20 06:54:04;;;;;;;3.58;2.13;;;14.10;99.90;;;;;;5020605;28;20045;-75
2023/05/20 06:56:30;;;;;;;5.65;2.03;;;14.10;99.90;;;;;;5038259;28;20053;-77
2023/05/20 06:58:56;;;;;;;3.75;1.90;;;14.20;99.90;;;;;;5037755;28;20059;-76
2023/05/20 07:01:25;;;;;;;5.63;1.73;;;14.30;99.90;;;;;;5041968;28;20048;-74
2023/05/20 07:03:51;;;;;;;3.40;1.80;;;14.50;99.90;;;;;;5016424;28;20049;-78
2023/05/20 07:06:17;;;;;;;5.85;2.13;;;14.90;99.90;;;;;;5027101;28;20060;-76
2023/05/20 07:08:42;;;;;;;7.65;1.95;;;16.10;99.90;;;;;;5016171;28;20099;-76
2023/05/20 07:11:11;;;;;;;3.05;1.50;;;15.50;99.90;;;;;;5035232;28;20124;-75
2023/05/20 07:13:37;;;;;;;5.57;2.15;;;15.70;99.90;;;;;;5023354;28;20168;-76
2023/05/20 07:16:04;;;;;;;3.13;1.70;;;16.70;99.90;;;;;;5026219;28;20045;-76
2023/05/20 07:18:30;;;;;;;3.85;1.70;;;16.20;99.90;;;;;;5042100;28;20061;-78
2023/05/20 07:20:56;;;;;;;5.90;1.70;;;16.50;99.90;;;;;;5009755;28;20523;-74
2023/05/20 07:23:28;;;;;;;4.72;1.60;;;16.70;99.90;;;;;;5032364;28;20057;-79
2023/05/20 07:25:54;;;;;;;3.95;1.50;;;17.00;99.90;;;;;;5045201;28;20052;-76
2023/05/20 07:28:20;;;;;;;3.38;1.30;;;17.20;99.90;;;;;;5038363;28;20081;-76
2023/05/20 07:30:48;;;;;;;6.63;1.77;;;17.40;99.90;;;;;;5014985;28;20561;-79
2023/05/20 07:33:16;;;;;;;4.47;1.60;;;17.60;99.90;;;;;;5020505;28;20145;-76
2023/05/20 07:35:43;;;;;;;3.55;1.50;;;17.80;99.90;;;;;;5026429;28;20052;-76
2023/05/20 07:38:17;;;;;;;3.33;1.40;;;18.10;99.90;;;;;;5039043;28;20064;-75
2023/05/20 07:40:43;;;;;;;3.35;1.40;;;18.30;99.90;;;;;;5029178;28;20053;-75
2023/05/20 07:43:10;;;;;;;2.70;1.58;;;18.40;99.90;;;;;;5041844;28;20049;-77
2023/05/20 07:45:36;;;;;;;6.30;1.42;;;18.60;99.90;;;;;;5023444;28;20053;-78
2023/05/20 07:48:02;;;;;;;2.88;1.30;;;18.80;99.90;;;;;;5035259;28;20046;-75
2023/05/20 07:50:28;;;;;;;2.70;1.48;;;18.90;99.90;;;;;;5042209;28;20444;-76
2023/05/20 07:52:54;;;;;;;3.97;1.38;;;19.10;99.90;;;;;;5035707;28;20785;-76
2023/05/20 07:55:20;;;;;;;3.80;1.38;;;19.20;99.90;;;;;;5041056;28;20052;-76
2023/05/20 07:57:46;;;;;;;4.07;1.60;;;19.30;99.90;;;;;;5015736;28;20084;-78
2023/05/20 08:00:13;;;;;;;5.32;1.60;;;19.50;99.90;;;;;;5035636;28;20048;-75
2023/05/20 08:02:40;;;;;;;3.47;1.40;;;19.70;99.90;;;;;;5024386;28;20244;-76
2023/05/20 08:05:07;;;;;;;3.28;1.70;;;19.90;99.90;;;;;;5025950;28;20524;-78
2023/05/20 08:07:33;;;;;;;4.93;1.70;;;20.10;99.90;;;;;;5019628;28;20128;-79
2023/05/20 08:09:59;;;;;;;3.60;1.40;;;20.20;99.90;;;;;;5001787;28;20582;-77
2023/05/20 08:12:26;;;;;;;5.20;1.50;;;20.40;99.90;;;;;;5027370;28;20505;-77
2023/05/20 08:14:53;;;;;;;5.95;1.50;;;20.50;99.90;;;;;;5026832;28;20045;-78
2023/05/20 08:17:19;;;;;;;4.40;1.40;;;20.50;99.90;;;;;;5027580;28;20044;-76
2023/05/20 08:19:51;;;;;;;3.70;1.38;;;20.60;99.90;;;;;;5022649;28;20367;-78
2023/05/20 08:22:17;;;;;;;3.45;1.20;;;20.80;99.90;;;;;;4997657;28;20128;-77
2023/05/20 08:24:42;;;;;;;2.42;1.33;;;20.90;99.90;;;;;;5025309;28;20222;-79
2023/05/20 08:27:08;;;;;;;6.88;1.50;;;21.00;99.40;;;;;;5005728;28;20053;-78
2023/05/20 08:29:35;;;;;;;3.35;1.50;;;21.20;98.80;;;;;;5012140;28;20048;-78
2023/05/20 08:32:06;;;;;;;3.95;1.50;;;21.40;98.60;;;;;;5028099;28;20173;-77
2023/05/20 08:34:35;;;;;;;3.72;1.58;;;21.60;98.30;;;;;;5047963;28;20055;-75
2023/05/20 08:37:01;;;;;;;4.95;1.85;;;21.70;97.70;;;;;;5037961;28;20084;-77
2023/05/20 08:39:27;;;;;;;4.28;1.40;;;21.80;97.00;;;;;;5019005;28;20049;-77
2023/05/20 08:41:53;;;;;;;3.80;1.42;;;22.00;96.60;;;;;;5037245;28;20084;-76
2023/05/20 08:44:20;;;;;;;6.63;1.38;;;22.10;95.80;;;;;;5033183;28;20048;-76
2023/05/20 08:46:47;;;;;;;4.70;1.17;;;22.20;95.30;;;;;;5040907;28;20051;-75
2023/05/20 08:49:15;;;;;;;3.60;1.50;;;22.40;95.00;;;;;;5032274;28;20130;-76
2023/05/20 08:51:45;;;;;;;4.88;1.60;;;22.40;94.00;;;;;;5032333;28;20080;-76
2023/05/20 08:54:13;;;;;;;2.75;1.10;;;22.40;93.30;;;;;;5036658;28;20971;-78
2023/05/20 08:56:40;;;;;;;5.13;1.30;;;22.50;93.10;;;;;;5030208;28;20076;-76
2023/05/20 08:59:08;;;;;;;4.53;1.20;;;22.60;92.50;;;;;;5030614;28;20049;-78
2023/05/20 09:01:41;;;;;;;3.38;1.27;;;22.80;92.20;;;;;;5031152;28;20048;-76
2023/05/20 09:04:08;;;;;;;4.80;1.30;;;23.10;91.10;;;;;;5034863;28;20052;-78
2023/05/20 09:06:46;;;;;;;5.45;1.10;;;23.10;90.70;;;;;;5028870;28;20053;-76
2023/05/20 09:09:13;;;;;;;3.15;1.17;;;23.30;86.90;;;;;;5031023;28;21063;-78
2023/05/20 09:11:41;;;;;;;2.97;1.10;;;23.40;88.60;;;;;;5025922;28;20059;-77
2023/05/20 09:14:18;;;;;;;6.05;1.15;;;23.40;86.40;;;;;;5013323;28;20566;-77
2023/05/20 09:16:50;;;;;;;5.45;1.30;;;23.50;86.20;;;;;;5031472;28;20071;-77
2023/05/20 09:19:17;;;;;;;3.45;1.27;;;23.60;85.20;;;;;;5016682;28;20052;-77
2023/05/20 09:21:55;;;;;;;4.60;1.10;;;23.80;85.00;;;;;;5016734;28;20059;-77
2023/05/20 09:24:25;;;;;;;2.58;1.00;;;23.90;84.60;;;;;;5019998;28;20075;-77
2023/05/20 09:26:51;;;;;;;5.13;1.35;;;24.00;83.90;;;;;;5030655;28;20222;-78
2023/05/20 09:29:20;;;;;;;3.08;1.17;;;24.20;84.30;;;;;;5029000;28;20045;-77
2023/05/20 09:31:47;;;;;;;4.70;1.13;;;24.30;83.90;;;;;;5015438;28;20696;-77
2023/05/20 09:34:13;;;;;;;4.57;1.33;;;24.40;83.30;;;;;;5003126;28;20053;-77
2023/05/20 09:36:42;;;;;;;4.63;1.45;;;24.40;82.70;;;;;;5034762;28;20065;-77
2023/05/20 09:39:13;;;;;;;2.80;1.00;;;24.60;81.80;;;;;;5031800;28;20086;-79
2023/05/20 09:41:55;;;;;;;5.03;1.60;;;24.50;79.40;;;;;;5018449;28;20045;-78
2023/05/20 09:44:22;;;;;;;3.05;1.60;;;24.40;76.90;;;;;;5033896;28;20132;-77
2023/05/20 09:46:55;;;;;;;3.58;1.27;;;24.30;79.20;;;;;;5019775;28;20047;-76
2023/05/20 09:49:22;;;;;;;4.97;1.45;;;24.50;79.20;;;;;;5034164;28;20630;-77
2023/05/20 09:51:52;;;;;;;4.43;1.40;;;24.70;79.40;;;;;;5026621;28;20417;-76
2023/05/20 09:54:18;;;;;;;5.05;1.83;;;24.70;77.80;;;;;;5028059;28;20516;-76
2023/05/20 09:56:53;;;;;;;3.30;1.40;;;24.90;78.40;;;;;;5034480;28;20049;-78
2023/05/20 09:59:20;;;;;;;4.90;1.48;;;25.00;78.00;;;;;;5001339;28;20052;-76
2023/05/20 10:01:46;;;;;;;4.53;1.20;;;25.00;77.50;;;;;;5033516;28;20047;-78
2023/05/20 10:04:15;;;;;;;4.55;1.40;;;25.10;77.60;;;;;;5032896;28;20040;-76
2023/05/20 10:07:14;;;;;;;5.30;1.38;;;25.10;77.10;;;;;;5043032;28;20738;-77
2023/05/20 10:09:56;;;;;;;8.25;1.58;;;25.30;76.00;;;;;;5029688;28;20386;-78
2023/05/20 10:12:44;;;;;;;3.47;1.40;;;25.30;74.90;;;;;;5022478;28;20044;-76
2023/05/20 10:15:52;;;;;;;3.50;1.35;;;25.40;75.50;;;;;;5028766;28;20076;-76
2023/05/20 10:18:39;;;;;;;6.70;1.77;;;25.50;74.80;;;;;;5011721;28;20525;-79
2023/05/20 10:21:15;;;;;;;4.05;1.33;;;25.50;74.10;;;;;;5036600;28;20054;-77
2023/05/20 10:23:41;;;;;;;5.22;1.55;;;25.00;74.90;;;;;;5035313;28;20053;-79
2023/05/20 10:26:07;;;;;;;3.80;1.30;;;25.50;75.50;;;;;;5031282;28;20598;-79
2023/05/20 10:28:35;;;;;;;4.10;1.40;;;25.70;75.40;;;;;;5033265;28;20049;-77
2023/05/20 10:31:33;;;;;;;5.15;1.42;;;25.90;75.10;;;;;;5026767;28;20458;-79
2023/05/20 10:34:17;;;;;;;2.95;1.15;;;25.90;74.90;;;;;;5047246;28;20153;-76
2023/05/20 10:36:57;;;;;;;6.13;1.40;;;25.90;74.70;;;;;;5032791;28;20128;-76
2023/05/20 10:39:33;;;;;;;2.97;1.30;;;25.90;73.30;;;;;;5021212;28;20068;-75
2023/05/20 10:42:09;;;;;;;3.83;1.30;;;26.00;73.10;;;;;;5029827;28;20171;-76
2023/05/20 10:44:46;;;;;;;3.97;1.73;;;26.00;74.40;;;;;;5030845;28;20529;-77
2023/05/20 10:47:12;;;;;;;4.38;1.63;;;26.10;73.00;;;;;;5030943;28;20049;-77
2023/05/20 10:49:46;;;;;;;4.72;1.52;;;26.10;74.50;;;;;;5029993;28;20557;-77
2023/05/20 10:52:19;;;;;;;4.70;1.48;;;26.20;74.00;;;;;;5034481;28;20044;-78
2023/05/20 10:55:03;;;;;;;4.82;1.63;;;26.20;73.30;;;;;;5022834;28;20099;-77
2023/05/20 10:57:31;;;;;;;4.13;1.67;;;26.30;73.40;;;;;;5032796;28;20049;-74
2023/05/20 10:59:57;;;;;;;5.45;1.45;;;26.50;74.10;;;;;;5019950;28;20093;-76
2023/05/20 11:02:27;;;;;;;3.72;1.52;;;26.50;73.90;;;;;;5023701;28;20048;-79
2023/05/20 11:04:59;;;;;;;5.68;1.50;;;26.50;73.80;;;;;;5029670;28;20131;-76
2023/05/20 11:07:30;;;;;;;5.22;1.70;;;26.50;73.80;;;;;;5038196;28;20041;-76
2023/05/20 11:09:57;;;;;;;7.18;1.60;;;26.50;73.50;;;;;;5016870;28;20510;-77
2023/05/20 11:12:24;;;;;;;4.15;1.33;;;26.50;73.80;;;;;;5036197;28;20114;-77
2023/05/20 11:14:51;;;;;;;5.57;2.17;;;26.70;73.80;;;;;;5036632;28;20080;-77
2023/05/20 11:17:21;;;;;;;6.93;1.80;;;26.70;73.70;;;;;;5022185;28;20098;-77
2023/05/20 11:19:47;;;;;;;5.68;2.00;;;26.80;73.20;;;;;;5007983;28;20052;-75
2023/05/20 11:22:13;;;;;;;4.68;1.65;;;26.80;72.80;;;;;;5047577;28;20042;-76
2023/05/20 11:24:40;;;;;;;6.25;1.63;;;26.80;73.00;;;;;;5031016;28;20197;-78
2023/05/20 11:27:09;;;;;;;7.10;1.70;;;26.90;72.80;;;;;;5033295;28;20225;-77
2023/05/20 11:29:34;;;;;;;4.55;1.40;;;27.00;73.10;;;;;;5018130;28;20076;-76
2023/05/20 11:32:00;;;;;;;6.03;1.80;;;27.20;73.20;;;;;;5028884;28;20052;-77
2023/05/20 11:34:33;;;;;;;4.60;1.80;;;27.30;73.20;;;;;;5011306;28;20055;-76
2023/05/20 11:36:59;;;;;;;5.25;1.90;;;27.40;73.40;;;;;;5037730;28;20045;-76
2023/05/20 11:39:28;;;;;;;6.85;2.08;;;27.60;74.00;;;;;;5034076;28;20076;-76
2023/05/20 11:42:00;;;;;;;7.05;1.90;;;27.70;73.40;;;;;;5020997;28;20068;-76
2023/05/20 11:44:26;;;;;;;7.35;2.05;;;27.70;73.10;;;;;;5018807;28;20168;-76
2023/05/20 11:47:00;;;;;;;6.95;2.20;;;27.70;73.30;;;;;;5016135;28;20048;-76
2023/05/20 11:49:29;;;;;;;6.87;2.00;;;27.80;72.60;;;;;;5016625;28;20119;-78
2023/05/20 11:51:56;;;;;;;4.80;1.90;;;27.90;72.80;;;;;;5013818;28;20032;-77
2023/05/20 11:54:23;;;;;;;7.18;2.20;;;27.70;72.40;;;;;;5027678;28;20049;-76
2023/05/20 11:56:49;;;;;;;6.10;1.85;;;27.70;72.50;;;;;;5027601;28;20056;-75
2023/05/20 11:59:15;;;;;;;5.25;1.80;;;27.60;72.20;;;;;;5035531;28;20071;-75
2023/05/20 12:01:46;;;;;;;5.03;1.60;;;27.70;72.50;;;;;;5034009;28;20083;-75
2023/05/20 12:04:13;;;;;;;6.00;1.60;;;27.70;72.30;;;;;;5023957;28;20080;-75
2023/05/20 12:06:46;;;;;;;4.55;2.05;;;27.70;71.90;;;;;;5033029;28;20056;-75
2023/05/20 12:09:12;;;;;;;6.90;2.03;;;27.80;72.00;;;;;;5036186;28;20139;-77
2023/05/20 12:11:40;;;;;;;6.38;1.90;;;27.90;72.00;;;;;;5040547;28;20049;-78
2023/05/20 12:14:06;;;;;;;8.00;2.08;;;27.90;71.70;;;;;;5037328;28;20049;-75
2023/05/20 12:16:33;;;;;;;8.25;2.33;;;27.80;71.50;;;;;;5042489;28;20115;-77
2023/05/20 12:18:59;;;;;;;6.05;3.05;;;27.80;71.00;;;;;;5018568;28;20060;-76
2023/05/20 12:21:25;;;;;;;7.13;2.10;;;27.80;71.40;;;;;;5020599;28;20055;-75
2023/05/20 12:24:00;;;;;;;6.15;2.20;;;27.70;71.00;;;;;;5023002;28;20188;-76
2023/05/20 12:26:30;;;;;;;7.45;1.80;;;27.80;71.40;;;;;;5058613;28;20124;-75
2023/05/20 12:28:55;;;;;;;7.32;1.98;;;27.80;71.50;;;;;;5022216;28;20625;-73
2023/05/20 12:31:23;;;;;;;8.00;1.95;;;27.90;71.60;;;;;;5024224;28;20151;-77
2023/05/20 12:33:48;;;;;;;6.70;1.45;;;27.90;71.50;;;;;;5033995;28;20053;-76
2023/05/20 12:36:14;;;;;;;4.82;1.52;;;28.00;71.60;;;;;;5035425;28;20049;-76
2023/05/20 12:38:40;;;;;;;6.88;2.03;;;28.10;71.10;;;;;;5020592;28;20064;-78
2023/05/20 12:41:06;;;;;;;7.53;1.50;;;28.10;70.90;;;;;;5031952;28;20560;-78
2023/05/20 12:43:32;;;;;;;5.57;1.85;;;28.10;70.80;;;;;;5037593;28;20176;-76
2023/05/20 12:45:59;;;;;;;6.57;2.20;;;28.00;70.90;;;;;;5023180;28;20941;-76
2023/05/20 12:48:25;;;;;;;5.10;1.77;;;27.80;70.70;;;;;;5032814;28;20055;-76